createdAt,value
2019-03-16T00:02:26.135Z,100549.31
2019-03-16T00:06:31.648Z,100550.83
2019-03-16T00:10:37.041Z,100550.33
2019-03-16T00:14:42.570Z,100565.22
2019-03-16T00:18:47.892Z,100569.04
2019-03-16T00:22:53.345Z,100596.86
2019-03-16T00:26:58.689Z,100595.47
2019-03-16T00:31:05.316Z,100595.44
2019-03-16T00:35:11.278Z,100582.45
2019-03-16T00:39:16.796Z,100583.43
2019-03-16T00:43:22.268Z,100587.77
2019-03-16T00:47:27.717Z,100592.50
2019-03-16T00:51:33.516Z,100602.91
2019-03-16T00:55:39.016Z,100600.16
2019-03-16T00:59:44.708Z,100599.77
2019-03-16T01:03:50.425Z,100601.80
2019-03-16T01:07:55.882Z,100594.39
2019-03-16T01:12:01.365Z,100603.67
2019-03-16T01:16:06.809Z,100582.20
2019-03-16T01:20:12.297Z,100592.78
2019-03-16T01:24:18.036Z,100601.19
2019-03-16T01:28:23.414Z,100600.27
2019-03-16T01:32:40.187Z,100590.95
2019-03-16T01:36:36.152Z,100606.48
2019-03-16T01:40:41.589Z,100604.69
2019-03-16T01:44:47.326Z,100608.39
2019-03-16T01:48:52.709Z,100603.61
2019-03-16T01:52:58.065Z,100606.45
2019-03-16T01:57:03.559Z,100609.55
2019-03-16T02:01:09.070Z,100606.70
2019-03-16T02:05:14.533Z,100600.53
2019-03-16T02:09:19.900Z,100610.29
2019-03-16T02:13:25.443Z,100610.66
2019-03-16T02:17:30.845Z,100597.08
2019-03-16T02:21:36.379Z,100593.09
2019-03-16T02:25:41.973Z,100591.72
2019-03-16T02:29:47.350Z,100587.56
2019-03-16T02:33:53.111Z,100592.63
2019-03-16T02:37:58.462Z,100590.04
2019-03-16T02:42:03.970Z,100581.20
2019-03-16T02:46:09.424Z,100569.46
2019-03-16T02:50:15.021Z,100567.09
2019-03-16T02:54:20.449Z,100574.89
2019-03-16T02:58:25.928Z,100567.75
2019-03-16T03:02:31.429Z,100562.69
2019-03-16T03:06:37.156Z,100573.05
2019-03-16T03:10:42.552Z,100576.03
2019-03-16T03:14:47.992Z,100573.31
2019-03-16T03:18:53.625Z,100555.58
2019-03-16T03:22:59.339Z,100539.50
2019-03-16T03:27:04.787Z,100545.02
2019-03-16T03:31:10.658Z,100559.22
2019-03-16T03:35:16.100Z,100563.05
2019-03-16T03:39:21.536Z,100576.42
2019-03-16T03:43:27.420Z,100567.05
2019-03-16T03:47:32.835Z,100564.66
2019-03-16T03:51:38.321Z,100550.11
2019-03-16T03:55:43.761Z,100556.97
2019-03-16T03:59:49.257Z,100556.60
2019-03-16T04:03:54.960Z,100559.00
2019-03-16T04:08:00.550Z,100552.44
2019-03-16T04:12:06.003Z,100557.73
2019-03-16T04:16:11.477Z,100558.48
2019-03-16T04:20:16.833Z,100560.77
2019-03-16T04:24:22.277Z,100553.23
2019-03-16T04:28:28.316Z,100561.41
2019-03-16T04:32:33.837Z,100551.25
2019-03-16T04:36:39.560Z,100551.96
2019-03-16T04:40:45.263Z,100550.22
2019-03-16T04:44:50.685Z,100547.66
2019-03-16T04:48:56.378Z,100543.38
2019-03-16T04:53:01.856Z,100543.20
2019-03-16T04:57:07.290Z,100542.85
2019-03-16T05:01:12.728Z,100550.08
2019-03-16T05:05:18.072Z,100535.05
2019-03-16T05:09:23.822Z,100539.00
2019-03-16T05:13:29.175Z,100539.53
2019-03-16T05:17:34.636Z,100529.29
2019-03-16T05:21:40.051Z,100530.66
2019-03-16T05:25:45.422Z,100535.33
2019-03-16T05:29:51.115Z,100541.53
2019-03-16T05:33:56.466Z,100536.23
2019-03-16T05:38:01.823Z,100532.66
2019-03-16T05:42:07.285Z,100534.03
2019-03-16T05:46:12.735Z,100535.41
2019-03-16T05:50:18.202Z,100532.24
2019-03-16T05:54:23.691Z,100538.41
2019-03-16T05:58:29.180Z,100524.55
2019-03-16T06:02:34.689Z,100531.07
2019-03-16T06:06:40.157Z,100524.55
2019-03-16T06:10:45.550Z,100528.14
2019-03-16T06:14:50.902Z,100527.01
2019-03-16T06:18:56.271Z,100526.00
2019-03-16T06:23:02.013Z,100522.07
2019-03-16T06:27:07.489Z,100513.86
2019-03-16T06:31:12.917Z,100519.34
2019-03-16T06:35:24.497Z,100516.77
2019-03-16T06:39:25.534Z,100504.23
2019-03-16T06:43:30.969Z,100506.80
2019-03-16T06:47:36.508Z,100506.62
2019-03-16T06:51:42.196Z,100502.45
2019-03-16T06:55:47.775Z,100494.41
2019-03-16T06:59:53.226Z,100491.77
2019-03-16T07:03:58.720Z,100495.68
2019-03-16T07:08:04.230Z,100476.29
2019-03-16T07:12:09.710Z,100477.02
2019-03-16T07:16:15.157Z,100460.28
2019-03-16T07:20:20.598Z,100469.05
2019-03-16T07:24:26.073Z,100469.05
2019-03-16T07:28:31.823Z,100468.29
2019-03-16T07:32:37.526Z,100459.73
2019-03-16T07:36:42.891Z,100456.56
2019-03-16T07:40:48.822Z,100454.25
2019-03-16T07:45:07.269Z,100443.77
2019-03-16T07:49:01.848Z,100448.09
2019-03-16T07:53:07.592Z,100444.66
2019-03-16T07:57:20.572Z,100427.80
2019-03-16T08:01:26.010Z,100444.31
2019-03-16T08:05:31.431Z,100446.66
2019-03-16T08:09:36.988Z,100457.92
2019-03-16T08:13:42.503Z,100452.11
2019-03-16T08:17:47.983Z,100476.23
2019-03-16T08:21:53.483Z,100479.76
2019-03-16T08:25:58.858Z,100463.53
2019-03-16T08:30:05.163Z,100473.89
2019-03-16T08:34:10.549Z,100477.14
2019-03-16T08:38:15.926Z,100469.75
2019-03-16T08:42:21.992Z,100480.53
2019-03-16T08:46:27.473Z,100479.33
2019-03-16T08:50:32.864Z,100477.34
2019-03-16T08:54:38.263Z,100463.05
2019-03-16T08:58:43.601Z,100455.52
2019-03-16T09:02:49.071Z,100455.27
2019-03-16T09:06:54.825Z,100452.73
2019-03-16T09:11:00.263Z,100444.25
2019-03-16T09:15:06.838Z,100432.73
2019-03-16T09:19:12.318Z,100422.17
2019-03-16T09:23:18.043Z,100423.02
2019-03-16T09:27:31.082Z,100441.83
2019-03-16T09:31:30.609Z,100424.73
2019-03-16T09:35:35.962Z,100426.14
2019-03-16T09:39:41.402Z,100436.25
2019-03-16T09:43:46.798Z,100419.78
2019-03-16T09:47:52.455Z,100428.69
2019-03-16T09:51:57.851Z,100417.50
2019-03-16T09:56:03.294Z,100424.10
2019-03-16T10:00:11.344Z,100428.45
2019-03-16T10:04:16.843Z,100425.15
2019-03-16T10:08:22.972Z,100408.11
2019-03-16T10:12:28.420Z,100407.15
2019-03-16T10:16:34.282Z,100394.09
2019-03-16T10:20:39.753Z,100392.91
2019-03-16T10:24:45.679Z,100394.70
2019-03-16T10:28:51.058Z,100386.40
2019-03-16T10:32:56.354Z,100382.03
2019-03-16T10:37:01.918Z,100376.47
2019-03-16T10:41:07.373Z,100371.70
2019-03-16T10:45:13.272Z,100377.85
2019-03-16T10:49:18.662Z,100397.60
2019-03-16T10:53:24.544Z,100373.82
2019-03-16T10:57:29.999Z,100389.28
2019-03-16T11:01:35.798Z,100375.30
2019-03-16T11:05:41.553Z,100373.44
2019-03-16T11:09:47.080Z,100369.87
2019-03-16T11:13:52.557Z,100384.57
2019-03-16T11:17:58.286Z,100378.09
2019-03-16T11:22:03.803Z,100374.03
2019-03-16T11:26:09.657Z,100372.22
2019-03-16T11:30:15.165Z,100379.31
2019-03-16T11:34:20.539Z,100382.30
2019-03-16T11:38:26.489Z,100370.83
2019-03-16T11:42:32.800Z,100366.07
2019-03-16T11:46:38.395Z,100360.76
2019-03-16T11:50:43.859Z,100358.28
2019-03-16T11:54:49.626Z,100372.52
2019-03-16T11:58:54.989Z,100358.94
2019-03-16T12:03:00.553Z,100384.29
2019-03-16T12:07:05.969Z,100360.61
2019-03-16T12:11:11.416Z,100362.84
2019-03-16T12:15:17.167Z,100361.06
2019-03-16T12:19:22.963Z,100350.85
2019-03-16T12:23:28.472Z,100354.25
2019-03-16T12:27:34.029Z,100353.71
2019-03-16T12:31:39.568Z,100343.00
2019-03-16T12:35:45.035Z,100345.66
2019-03-16T12:39:51.639Z,100339.59
2019-03-16T12:43:56.935Z,100333.00
2019-03-16T12:48:02.782Z,100332.94
2019-03-16T12:52:08.327Z,100333.04
2019-03-16T12:56:13.801Z,100321.05
2019-03-16T13:00:19.421Z,100316.69
2019-03-16T13:04:25.353Z,100325.84
2019-03-16T13:08:30.738Z,100321.78
2019-03-16T13:12:39.052Z,100305.31
2019-03-16T13:16:43.890Z,100305.63
2019-03-16T13:20:49.599Z,100309.22
2019-03-16T13:24:55.022Z,100291.36
2019-03-16T13:29:00.520Z,100287.75
2019-03-16T13:33:05.975Z,100297.96
2019-03-16T13:37:11.473Z,100296.88
2019-03-16T13:41:16.972Z,100294.98
2019-03-16T13:45:22.239Z,100296.25
2019-03-16T13:49:30.988Z,100281.98
2019-03-16T13:53:36.451Z,100290.05
2019-03-16T13:57:42.396Z,100288.03
2019-03-16T14:01:48.408Z,100285.16
2019-03-16T14:05:53.905Z,100280.55
2019-03-16T14:09:59.357Z,100263.98
2019-03-16T14:14:04.910Z,100260.95
2019-03-16T14:18:10.390Z,100263.97
2019-03-16T14:22:16.940Z,100258.88
2019-03-16T14:26:22.672Z,100263.45
2019-03-16T14:30:40.438Z,100252.62
2019-03-16T14:34:35.540Z,100259.20
2019-03-16T14:38:40.865Z,100257.59
2019-03-16T14:42:47.258Z,100242.31
2019-03-16T14:46:53.036Z,100246.27
2019-03-16T14:50:58.477Z,100248.70
2019-03-16T14:55:03.885Z,100237.66
2019-03-16T14:59:09.338Z,100235.87
2019-03-16T15:03:14.857Z,100231.54
2019-03-16T15:07:20.641Z,100220.17
2019-03-16T15:11:26.062Z,100219.52
2019-03-16T15:15:31.522Z,100218.66
2019-03-16T15:19:36.964Z,100204.41
2019-03-16T15:23:42.438Z,100193.37
2019-03-16T15:27:47.712Z,100185.48
2019-03-16T15:31:53.168Z,100178.80
2019-03-16T15:35:58.984Z,100174.44
2019-03-16T15:40:04.610Z,100163.47
2019-03-16T15:44:10.096Z,100156.78
2019-03-16T15:48:15.574Z,100150.10
2019-03-16T15:52:21.254Z,100148.21
2019-03-16T15:56:27.846Z,100143.52
2019-03-16T16:00:33.538Z,100135.95
2019-03-16T16:04:38.945Z,100125.53
2019-03-16T16:08:44.785Z,100116.41
2019-03-16T16:12:50.561Z,100123.65
2019-03-16T16:16:56.012Z,100108.47
2019-03-16T16:21:01.457Z,100111.66
2019-03-16T16:25:08.111Z,100086.88
2019-03-16T16:29:13.591Z,100098.91
2019-03-16T16:33:19.099Z,100086.80
2019-03-16T16:37:24.844Z,100097.08
2019-03-16T16:41:30.216Z,100097.64
2019-03-16T16:45:35.610Z,100088.74
2019-03-16T16:49:41.112Z,100082.38
2019-03-16T16:53:46.569Z,100088.78
2019-03-16T16:57:52.016Z,100079.02
2019-03-16T17:01:57.397Z,100092.09
2019-03-16T17:06:02.869Z,100066.70
2019-03-16T17:10:10.474Z,100075.35
2019-03-16T17:14:15.824Z,100077.03
2019-03-16T17:18:21.336Z,100073.61
2019-03-16T17:22:26.683Z,100062.19
2019-03-16T17:26:32.718Z,100072.11
2019-03-16T17:30:38.122Z,100063.28
2019-03-16T17:34:43.690Z,100056.36
2019-03-16T17:38:49.036Z,100061.78
2019-03-16T17:42:54.479Z,100047.30
2019-03-16T17:46:59.933Z,100046.48
2019-03-16T17:51:05.376Z,100035.33
2019-03-16T17:55:11.538Z,100027.48
2019-03-16T17:59:16.842Z,100032.14
2019-03-16T18:03:22.323Z,100033.56
2019-03-16T18:07:27.902Z,100028.41
2019-03-16T18:11:33.454Z,100019.77
2019-03-16T18:15:38.753Z,100021.80
2019-03-16T18:19:44.168Z,100022.12
2019-03-16T18:23:49.905Z,100022.27
2019-03-16T18:27:55.469Z,100010.88
2019-03-16T18:32:07.686Z,100004.67
2019-03-16T18:36:11.265Z,100019.08
2019-03-16T18:40:15.430Z,100009.97
2019-03-16T18:44:20.900Z,100010.02
2019-03-16T18:48:26.613Z,100011.57
2019-03-16T18:52:32.080Z,100010.19
2019-03-16T18:56:37.466Z,100005.33
2019-03-16T19:00:42.879Z,100001.66
2019-03-16T19:04:48.327Z,99997.06
2019-03-16T19:08:54.056Z,99991.36
2019-03-16T19:12:59.839Z,99992.16
2019-03-16T19:17:05.507Z,99987.55
2019-03-16T19:21:11.212Z,99976.55
2019-03-16T19:25:16.713Z,99964.13
2019-03-16T19:29:22.287Z,99966.42
2019-03-16T19:33:27.600Z,99960.98
2019-03-16T19:37:33.066Z,99963.30
2019-03-16T19:41:41.524Z,99949.73
2019-03-16T19:45:46.303Z,99954.91
2019-03-16T19:49:52.003Z,99938.80
2019-03-16T19:53:57.574Z,99931.26
2019-03-16T19:58:03.088Z,99935.15
2019-03-16T20:02:08.492Z,99932.61
2019-03-16T20:06:25.135Z,99925.66
2019-03-16T20:10:21.150Z,99916.55
2019-03-16T20:14:26.643Z,99903.81
2019-03-16T20:18:32.235Z,99902.39
2019-03-16T20:22:37.708Z,99891.52
2019-03-16T20:26:43.213Z,99881.64
2019-03-16T20:30:48.648Z,99870.02
2019-03-16T20:34:54.088Z,99878.95
2019-03-16T20:38:59.622Z,99869.52
2019-03-16T20:43:05.263Z,99875.19
2019-03-16T20:47:12.588Z,99870.39
2019-03-16T20:51:17.989Z,99867.85
2019-03-16T20:55:23.424Z,99857.70
2019-03-16T20:59:28.910Z,99858.54
2019-03-16T21:03:34.541Z,99852.27
2019-03-16T21:07:40.019Z,99837.59
2019-03-16T21:11:48.919Z,99830.41
2019-03-16T21:15:53.809Z,99836.14
2019-03-16T21:19:59.332Z,99825.45
2019-03-16T21:24:07.324Z,99823.91
2019-03-16T21:28:12.490Z,99824.24
2019-03-16T21:32:18.028Z,99814.81
2019-03-16T21:36:24.193Z,99810.16
2019-03-16T21:40:29.853Z,99806.14
2019-03-16T21:44:35.331Z,99797.09
2019-03-16T21:48:40.783Z,99798.41
2019-03-16T21:52:46.925Z,99791.13
2019-03-16T21:56:52.206Z,99787.83
2019-03-16T22:00:57.629Z,99775.92
2019-03-16T22:05:06.396Z,99768.48
2019-03-16T22:09:12.142Z,99763.20
2019-03-16T22:13:18.127Z,99768.64
2019-03-16T22:17:23.519Z,99753.55
2019-03-16T22:21:29.252Z,99752.39
2019-03-16T22:25:34.986Z,99747.27
2019-03-16T22:29:40.704Z,99747.23
2019-03-16T22:33:54.260Z,99733.30
2019-03-16T22:37:53.108Z,99740.98
2019-03-16T22:41:58.901Z,99744.11
2019-03-16T22:46:04.338Z,99725.02
2019-03-16T22:50:10.689Z,99737.69
2019-03-16T22:54:16.088Z,99725.12
2019-03-16T22:58:21.418Z,99712.00
2019-03-16T23:02:26.951Z,99719.67
2019-03-16T23:06:32.379Z,99713.78
2019-03-16T23:10:37.826Z,99701.17
2019-03-16T23:14:43.313Z,99710.70
2019-03-16T23:18:48.967Z,99694.84
2019-03-16T23:22:54.412Z,99690.42
2019-03-16T23:26:59.850Z,99685.73
2019-03-16T23:31:05.303Z,99693.34
2019-03-16T23:35:11.019Z,99678.23
2019-03-16T23:39:16.494Z,99662.31
2019-03-16T23:43:21.849Z,99667.83
2019-03-16T23:47:27.226Z,99659.56
2019-03-16T23:51:32.796Z,99651.05
2019-03-16T23:55:38.244Z,99642.08
2019-03-16T23:59:43.601Z,99642.91
